createdAt,value
2023-05-14T00:00:47.377Z,15.40
2023-05-14T00:03:14.439Z,15.40
2023-05-14T00:05:41.362Z,15.40
2023-05-14T00:08:09.393Z,15.40
2023-05-14T00:10:36.169Z,15.40
2023-05-14T00:13:02.896Z,15.40
2023-05-14T00:15:31.272Z,15.30
2023-05-14T00:17:58.997Z,15.30
2023-05-14T00:20:26.140Z,15.40
2023-05-14T00:22:52.865Z,15.40
2023-05-14T00:25:19.610Z,15.30
2023-05-14T00:27:46.351Z,15.30
2023-05-14T00:30:13.184Z,15.30
2023-05-14T00:32:39.928Z,15.30
2023-05-14T00:35:06.797Z,15.30
2023-05-14T00:37:33.514Z,15.20
2023-05-14T00:40:00.331Z,15.20
2023-05-14T00:42:27.216Z,15.20
2023-05-14T00:44:54.068Z,15.20
2023-05-14T00:47:21.061Z,15.20
2023-05-14T00:49:47.818Z,15.30
2023-05-14T00:52:14.506Z,15.30
2023-05-14T00:54:41.272Z,15.30
2023-05-14T00:57:08.042Z,15.30
2023-05-14T00:59:34.756Z,15.30
2023-05-14T01:02:01.652Z,15.30
2023-05-14T01:04:28.394Z,15.30
2023-05-14T01:06:55.076Z,15.30
2023-05-14T01:09:41.690Z,15.30
2023-05-14T01:12:10.661Z,15.30
2023-05-14T01:14:37.419Z,15.30
2023-05-14T01:17:04.281Z,15.30
2023-05-14T01:19:41.603Z,15.20
2023-05-14T01:22:08.474Z,15.30
2023-05-14T01:24:35.184Z,15.30
2023-05-14T01:27:04.181Z,15.30
2023-05-14T01:29:30.858Z,15.30
2023-05-14T01:31:57.635Z,15.30
2023-05-14T01:34:24.436Z,15.30
2023-05-14T01:36:51.625Z,15.30
2023-05-14T01:39:18.956Z,15.30
2023-05-14T01:41:46.299Z,15.30
2023-05-14T01:44:13.053Z,15.30
2023-05-14T01:46:39.828Z,15.30
2023-05-14T01:49:06.572Z,15.30
2023-05-14T01:51:33.336Z,15.30
2023-05-14T01:54:00.047Z,15.30
2023-05-14T01:56:27.118Z,15.30
2023-05-14T01:58:55.604Z,15.30
2023-05-14T02:01:22.624Z,15.30
2023-05-14T02:03:49.363Z,15.30
2023-05-14T02:06:16.077Z,15.30
2023-05-14T02:08:42.743Z,15.30
2023-05-14T02:11:09.388Z,15.30
2023-05-14T02:13:36.320Z,15.20
2023-05-14T02:16:03.033Z,15.30
2023-05-14T02:18:29.760Z,15.20
2023-05-14T02:20:57.466Z,15.20
2023-05-14T02:23:34.234Z,15.20
2023-05-14T02:26:04.856Z,15.20
2023-05-14T02:28:31.601Z,15.20
2023-05-14T02:30:58.776Z,15.10
2023-05-14T02:33:25.646Z,15.10
2023-05-14T02:35:52.376Z,15.10
2023-05-14T02:38:19.178Z,15.10
2023-05-14T02:40:45.907Z,15.10
2023-05-14T02:43:12.610Z,15.00
2023-05-14T02:45:39.325Z,15.10
2023-05-14T02:48:06.233Z,15.10
2023-05-14T02:50:33.105Z,15.10
2023-05-14T02:53:00.146Z,15.20
2023-05-14T02:55:26.890Z,15.20
2023-05-14T02:57:53.598Z,15.20
2023-05-14T03:00:20.439Z,15.20
2023-05-14T03:02:47.618Z,15.20
2023-05-14T03:05:14.945Z,15.20
2023-05-14T03:07:41.628Z,15.20
2023-05-14T03:10:08.557Z,15.20
2023-05-14T03:12:35.513Z,15.30
2023-05-14T03:15:02.234Z,15.20
2023-05-14T03:17:29.037Z,15.20
2023-05-14T03:19:55.799Z,15.10
2023-05-14T03:22:22.526Z,15.10
2023-05-14T03:24:49.200Z,15.10
2023-05-14T03:27:15.980Z,15.10
2023-05-14T03:29:42.690Z,15.20
2023-05-14T03:32:09.552Z,15.20
2023-05-14T03:34:36.829Z,15.20
2023-05-14T03:37:03.610Z,15.30
2023-05-14T03:39:30.539Z,15.30
2023-05-14T03:41:58.887Z,15.20
2023-05-14T03:44:25.726Z,15.30
2023-05-14T03:46:52.463Z,15.20
2023-05-14T03:49:19.144Z,15.10
2023-05-14T03:51:45.891Z,15.10
2023-05-14T03:54:12.596Z,15.20
2023-05-14T03:56:39.340Z,15.20
2023-05-14T03:59:06.377Z,15.30
2023-05-14T04:01:33.125Z,15.20
2023-05-14T04:03:59.937Z,15.30
2023-05-14T04:06:26.940Z,15.30
2023-05-14T04:08:53.811Z,15.30
2023-05-14T04:11:21.386Z,15.30
2023-05-14T04:13:48.105Z,15.30
2023-05-14T04:16:14.881Z,15.30
2023-05-14T04:18:42.141Z,15.30
2023-05-14T04:21:08.949Z,15.30
2023-05-14T04:23:35.833Z,15.30
2023-05-14T04:26:02.581Z,15.30
2023-05-14T04:28:29.327Z,15.30
2023-05-14T04:30:56.040Z,15.20
2023-05-14T04:33:22.750Z,15.20
2023-05-14T04:35:49.498Z,15.20
2023-05-14T04:38:16.492Z,15.10
2023-05-14T04:40:43.215Z,15.10
2023-05-14T04:43:10.607Z,15.10
2023-05-14T04:45:37.357Z,15.10
2023-05-14T04:48:04.386Z,15.20
2023-05-14T04:50:31.339Z,15.30
2023-05-14T04:52:58.054Z,15.30
2023-05-14T04:55:24.752Z,15.40
2023-05-14T04:57:51.617Z,15.40
2023-05-14T05:00:19.288Z,15.40
2023-05-14T05:02:46.082Z,15.40
2023-05-14T05:05:12.971Z,15.40
2023-05-14T05:07:39.707Z,15.40
2023-05-14T05:10:06.819Z,15.50
2023-05-14T05:12:35.328Z,15.60
2023-05-14T05:15:02.364Z,15.70
2023-05-14T05:17:29.308Z,15.70
2023-05-14T05:19:56.047Z,15.80
2023-05-14T05:22:23.073Z,15.80
2023-05-14T05:24:50.153Z,15.70
2023-05-14T05:27:16.988Z,15.70
2023-05-14T05:29:44.192Z,15.60
2023-05-14T05:32:10.939Z,15.40
2023-05-14T05:34:37.700Z,15.40
2023-05-14T05:37:06.148Z,15.40
2023-05-14T05:39:35.111Z,15.40
2023-05-14T05:42:04.998Z,15.50
2023-05-14T05:44:31.731Z,15.50
2023-05-14T05:46:58.645Z,15.40
2023-05-14T05:49:26.124Z,15.40
2023-05-14T05:51:52.828Z,15.40
2023-05-14T05:54:19.538Z,15.30
2023-05-14T05:56:46.242Z,15.20
2023-05-14T05:59:12.937Z,15.10
2023-05-14T06:01:41.312Z,15.20
2023-05-14T06:04:08.047Z,15.20
2023-05-14T06:06:34.859Z,15.30
2023-05-14T06:09:02.033Z,15.40
2023-05-14T06:11:28.874Z,15.60
2023-05-14T06:13:55.659Z,15.70
2023-05-14T06:16:22.385Z,15.80
2023-05-14T06:18:49.345Z,15.90
2023-05-14T06:21:16.052Z,15.90
2023-05-14T06:23:42.753Z,16.00
2023-05-14T06:26:09.456Z,15.90
2023-05-14T06:28:36.138Z,15.90
2023-05-14T06:31:02.905Z,15.90
2023-05-14T06:33:31.130Z,15.90
2023-05-14T06:35:58.930Z,15.90
2023-05-14T06:38:25.814Z,15.90
2023-05-14T06:40:55.285Z,16.00
2023-05-14T06:43:22.123Z,16.00
2023-05-14T06:45:49.140Z,16.00
2023-05-14T06:48:16.462Z,16.00
2023-05-14T06:50:43.231Z,16.10
2023-05-14T06:53:09.894Z,16.10
2023-05-14T06:55:36.600Z,16.20
2023-05-14T06:58:04.144Z,16.20
2023-05-14T07:00:30.826Z,16.20
2023-05-14T07:02:57.572Z,16.20
2023-05-14T07:05:24.682Z,16.30
2023-05-14T07:07:51.517Z,16.30
2023-05-14T07:10:18.275Z,16.40
2023-05-14T07:12:45.281Z,16.40
2023-05-14T07:15:12.295Z,16.40
2023-05-14T07:17:39.087Z,16.40
2023-05-14T07:20:06.129Z,16.40
2023-05-14T07:22:32.813Z,16.40
2023-05-14T07:24:59.547Z,16.40
2023-05-14T07:27:26.375Z,16.40
2023-05-14T07:29:53.070Z,16.40
2023-05-14T07:32:19.819Z,16.40
2023-05-14T07:34:46.648Z,16.50
2023-05-14T07:37:13.346Z,16.50
2023-05-14T07:39:41.683Z,16.60
2023-05-14T07:42:08.486Z,16.60
2023-05-14T07:44:35.175Z,16.60
2023-05-14T07:47:01.997Z,16.60
2023-05-14T07:49:28.779Z,16.60
2023-05-14T07:51:55.465Z,16.60
2023-05-14T07:54:22.153Z,16.60
2023-05-14T07:56:48.902Z,16.60
2023-05-14T07:59:15.594Z,16.50
2023-05-14T08:01:42.558Z,16.50
2023-05-14T08:04:11.687Z,16.60
2023-05-14T08:06:38.470Z,16.60
2023-05-14T08:09:05.449Z,16.70
2023-05-14T08:11:32.172Z,16.80
2023-05-14T08:13:58.871Z,16.80
2023-05-14T08:16:26.237Z,16.90
2023-05-14T08:18:53.039Z,16.90
2023-05-14T08:21:20.713Z,16.80
2023-05-14T08:23:47.435Z,16.60
2023-05-14T08:26:14.139Z,16.60
2023-05-14T08:28:40.853Z,16.50
2023-05-14T08:31:07.642Z,16.60
2023-05-14T08:33:34.409Z,16.90
2023-05-14T08:36:01.623Z,17.10
2023-05-14T08:38:28.302Z,17.30
2023-05-14T08:41:00.988Z,17.50
2023-05-14T08:43:29.780Z,17.70
2023-05-14T08:45:57.928Z,17.90
2023-05-14T08:48:24.761Z,18.00
2023-05-14T08:50:51.533Z,17.90
2023-05-14T08:53:18.209Z,17.90
2023-05-14T08:55:44.912Z,17.90
2023-05-14T08:58:11.734Z,17.90
2023-05-14T09:00:38.455Z,17.90
2023-05-14T09:03:05.575Z,17.90
2023-05-14T09:05:33.421Z,18.00
2023-05-14T09:08:00.150Z,18.00
2023-05-14T09:10:27.029Z,18.00
2023-05-14T09:12:53.922Z,18.00
2023-05-14T09:15:20.876Z,18.00
2023-05-14T09:17:48.700Z,17.90
2023-05-14T09:20:15.448Z,17.80
2023-05-14T09:22:42.125Z,17.80
2023-05-14T09:25:12.519Z,17.80
2023-05-14T09:27:39.264Z,17.80
2023-05-14T09:30:06.896Z,17.70
2023-05-14T09:32:46.374Z,17.70
2023-05-14T09:35:14.730Z,17.70
2023-05-14T09:37:42.753Z,17.60
2023-05-14T09:40:10.025Z,17.50
2023-05-14T09:42:36.713Z,17.50
2023-05-14T09:45:05.098Z,17.70
2023-05-14T09:47:32.952Z,18.00
2023-05-14T09:49:59.923Z,18.40
2023-05-14T09:52:26.696Z,18.60
2023-05-14T09:54:53.622Z,18.80
2023-05-14T09:57:20.566Z,19.00
2023-05-14T09:59:47.245Z,19.40
2023-05-14T10:02:23.105Z,19.60
2023-05-14T10:04:50.421Z,19.60
2023-05-14T10:07:17.334Z,19.60
2023-05-14T10:09:44.137Z,19.70
2023-05-14T10:12:10.927Z,19.60
2023-05-14T10:14:38.898Z,19.40
2023-05-14T10:17:05.941Z,19.30
2023-05-14T10:19:33.453Z,19.30
2023-05-14T10:22:03.163Z,19.30
2023-05-14T10:24:29.865Z,19.10
2023-05-14T10:26:56.554Z,18.90
2023-05-14T10:29:49.660Z,18.90
2023-05-14T10:32:16.566Z,18.90
2023-05-14T10:34:46.660Z,18.80
2023-05-14T10:37:21.083Z,18.70
2023-05-14T10:39:48.431Z,18.60
2023-05-14T10:42:18.946Z,18.60
2023-05-14T10:44:48.808Z,18.60
2023-05-14T10:47:16.626Z,18.60
2023-05-14T10:49:44.175Z,18.80
2023-05-14T10:52:11.215Z,18.90
2023-05-14T10:54:38.117Z,19.00
2023-05-14T10:57:08.965Z,19.20
2023-05-14T10:59:35.799Z,19.30
2023-05-14T11:02:05.110Z,19.50
2023-05-14T11:04:31.889Z,19.80
2023-05-14T11:06:58.661Z,19.90
2023-05-14T11:09:25.388Z,20.00
2023-05-14T11:11:52.105Z,20.00
2023-05-14T11:14:19.472Z,20.10
2023-05-14T11:16:46.188Z,19.90
2023-05-14T11:19:13.232Z,19.80
2023-05-14T11:21:40.014Z,19.60
2023-05-14T11:24:07.475Z,19.50
2023-05-14T11:26:34.410Z,19.30
2023-05-14T11:29:01.257Z,19.20
2023-05-14T11:31:28.067Z,19.10
2023-05-14T11:33:54.891Z,19.10
2023-05-14T11:36:21.933Z,19.00
2023-05-14T11:38:49.027Z,18.80
2023-05-14T11:41:16.153Z,18.70
2023-05-14T11:43:42.982Z,18.60
2023-05-14T11:46:16.027Z,18.40
2023-05-14T11:48:42.727Z,18.40
2023-05-14T11:51:09.431Z,18.30
2023-05-14T11:53:36.172Z,18.20
2023-05-14T11:56:03.210Z,18.10
2023-05-14T11:58:32.164Z,18.00
2023-05-14T12:00:58.876Z,18.00
2023-05-14T12:03:26.979Z,18.00
2023-05-14T12:06:00.218Z,18.00
2023-05-14T12:08:27.690Z,18.00
2023-05-14T12:10:54.418Z,18.00
2023-05-14T12:13:21.193Z,17.90
2023-05-14T12:15:48.578Z,17.80
2023-05-14T12:18:23.512Z,17.80
2023-05-14T12:20:52.205Z,17.70
2023-05-14T12:23:25.557Z,17.60
2023-05-14T12:25:52.227Z,17.60
2023-05-14T12:28:19.126Z,17.60
2023-05-14T12:30:46.350Z,17.60
2023-05-14T12:33:13.878Z,17.60
2023-05-14T12:35:41.030Z,17.60
2023-05-14T12:38:07.803Z,17.60
2023-05-14T12:40:34.510Z,17.60
2023-05-14T12:43:01.263Z,17.60
2023-05-14T12:45:27.999Z,17.60
2023-05-14T12:47:54.820Z,17.60
2023-05-14T12:50:21.659Z,17.50
2023-05-14T12:52:48.366Z,17.50
2023-05-14T12:55:15.058Z,17.50
2023-05-14T12:57:41.812Z,17.40
2023-05-14T13:00:13.028Z,17.40
2023-05-14T13:02:42.543Z,17.40
2023-05-14T13:05:10.000Z,17.40
2023-05-14T13:07:36.743Z,17.40
2023-05-14T13:10:05.961Z,17.40
2023-05-14T13:12:32.922Z,17.40
2023-05-14T13:14:59.644Z,17.20
2023-05-14T13:17:26.603Z,17.10
2023-05-14T13:19:53.582Z,17.10
2023-05-14T13:22:20.298Z,17.10
2023-05-14T13:24:47.137Z,17.20
2023-05-14T13:27:13.835Z,17.20
2023-05-14T13:29:40.887Z,17.10
2023-05-14T13:32:07.589Z,17.10
2023-05-14T13:34:34.454Z,17.20
2023-05-14T13:37:01.226Z,17.30
2023-05-14T13:39:27.958Z,17.30
2023-05-14T13:41:56.747Z,17.30
2023-05-14T13:44:23.715Z,17.40
2023-05-14T13:46:50.594Z,17.30
2023-05-14T13:49:17.494Z,17.30
2023-05-14T13:51:44.420Z,17.30
2023-05-14T13:54:11.329Z,17.20
2023-05-14T13:56:38.050Z,17.30
2023-05-14T13:59:04.856Z,17.30
2023-05-14T14:01:31.894Z,17.20
2023-05-14T14:03:58.762Z,17.00
2023-05-14T14:06:25.793Z,16.90
2023-05-14T14:08:52.587Z,16.90
2023-05-14T14:11:19.279Z,17.00
2023-05-14T14:13:46.753Z,17.00
2023-05-14T14:16:13.786Z,17.10
2023-05-14T14:18:40.601Z,16.90
2023-05-14T14:21:07.328Z,16.90
2023-05-14T14:23:34.043Z,16.90
2023-05-14T14:26:00.906Z,17.00
2023-05-14T14:28:27.692Z,17.00
2023-05-14T14:30:54.398Z,17.10
2023-05-14T14:33:21.222Z,17.20
2023-05-14T14:35:48.013Z,17.30
2023-05-14T14:38:14.699Z,17.40
2023-05-14T14:40:41.391Z,17.50
2023-05-14T14:43:08.141Z,17.40
2023-05-14T14:45:34.986Z,17.30
2023-05-14T14:48:20.479Z,17.20
2023-05-14T14:50:47.220Z,17.20
2023-05-14T14:53:13.953Z,17.10
2023-05-14T14:55:40.958Z,17.10
2023-05-14T14:58:07.708Z,17.10
2023-05-14T15:00:34.784Z,17.10
2023-05-14T15:03:01.536Z,17.10
2023-05-14T15:05:28.382Z,17.10
2023-05-14T15:07:55.111Z,17.20
2023-05-14T15:10:21.850Z,17.20
2023-05-14T15:12:48.571Z,17.10
2023-05-14T15:15:15.306Z,17.00
2023-05-14T15:17:42.108Z,17.00
2023-05-14T15:20:09.274Z,16.90
2023-05-14T15:22:35.980Z,17.00
2023-05-14T15:25:02.655Z,17.00
2023-05-14T15:27:29.352Z,17.00
2023-05-14T15:29:56.022Z,17.00
2023-05-14T15:32:22.900Z,17.00
2023-05-14T15:34:49.572Z,17.00
2023-05-14T15:37:16.313Z,17.00
2023-05-14T15:39:43.033Z,17.00
2023-05-14T15:42:09.774Z,17.00
2023-05-14T15:44:38.764Z,17.00
2023-05-14T15:47:05.897Z,17.00
2023-05-14T15:49:32.827Z,17.00
2023-05-14T15:52:00.661Z,17.00
2023-05-14T15:54:27.547Z,17.00
2023-05-14T15:56:55.273Z,17.00
2023-05-14T15:59:22.209Z,17.00
2023-05-14T16:01:50.135Z,17.00
2023-05-14T16:04:16.948Z,16.90
2023-05-14T16:06:45.152Z,16.90
2023-05-14T16:09:11.837Z,16.90
2023-05-14T16:11:38.567Z,16.90
2023-05-14T16:14:05.262Z,17.00
2023-05-14T16:16:32.054Z,16.90
2023-05-14T16:18:58.999Z,16.90
2023-05-14T16:21:25.752Z,16.90
2023-05-14T16:23:52.424Z,16.90
2023-05-14T16:26:19.229Z,16.90
2023-05-14T16:28:45.918Z,16.90
2023-05-14T16:31:13.873Z,16.90
2023-05-14T16:33:40.888Z,16.90
2023-05-14T16:36:07.567Z,16.90
2023-05-14T16:38:35.555Z,16.80
2023-05-14T16:41:07.118Z,16.80
2023-05-14T16:43:33.869Z,16.80
2023-05-14T16:46:00.570Z,16.80
2023-05-14T16:48:27.741Z,16.70
2023-05-14T16:50:56.025Z,16.70
2023-05-14T16:53:22.697Z,16.70
2023-05-14T16:55:49.468Z,16.70
2023-05-14T16:58:16.205Z,16.70
2023-05-14T17:00:42.895Z,16.70
2023-05-14T17:03:09.590Z,16.70
2023-05-14T17:05:36.448Z,16.70
2023-05-14T17:08:04.679Z,16.60
2023-05-14T17:10:33.225Z,16.50
2023-05-14T17:13:00.168Z,16.40
2023-05-14T17:15:26.916Z,16.40
2023-05-14T17:17:54.360Z,16.30
2023-05-14T17:20:21.098Z,16.30
2023-05-14T17:22:47.935Z,16.30
2023-05-14T17:25:14.725Z,16.20
2023-05-14T17:27:41.482Z,16.30
2023-05-14T17:30:08.384Z,16.20
2023-05-14T17:32:35.252Z,16.20
2023-05-14T17:35:02.099Z,16.20
2023-05-14T17:37:28.897Z,16.30
2023-05-14T17:39:55.742Z,16.30
2023-05-14T17:42:22.398Z,16.30
2023-05-14T17:44:49.132Z,16.20
2023-05-14T17:47:16.034Z,16.20
2023-05-14T17:49:42.755Z,16.30
2023-05-14T17:52:09.423Z,16.20
2023-05-14T17:54:36.142Z,16.20
2023-05-14T17:57:03.092Z,16.20
2023-05-14T17:59:29.797Z,16.10
2023-05-14T18:01:56.560Z,16.00
2023-05-14T18:04:23.223Z,16.00
2023-05-14T18:06:49.884Z,16.00
2023-05-14T18:09:16.604Z,16.00
2023-05-14T18:11:43.369Z,16.00
2023-05-14T18:14:10.342Z,16.00
2023-05-14T18:16:37.216Z,16.10
2023-05-14T18:19:04.025Z,16.10
2023-05-14T18:21:30.905Z,16.10
2023-05-14T18:23:57.605Z,16.20
2023-05-14T18:26:24.292Z,16.10
2023-05-14T18:28:50.986Z,16.10
2023-05-14T18:31:17.729Z,16.20
2023-05-14T18:33:44.446Z,16.20
2023-05-14T18:36:11.349Z,16.20
2023-05-14T18:38:38.196Z,16.20
2023-05-14T18:41:05.100Z,16.20
2023-05-14T18:43:32.079Z,16.10
2023-05-14T18:45:58.949Z,16.10
2023-05-14T18:48:26.371Z,16.10
2023-05-14T18:50:53.067Z,16.10
2023-05-14T18:53:19.784Z,16.10
2023-05-14T18:55:46.907Z,16.10
2023-05-14T18:58:14.530Z,16.10
2023-05-14T19:00:41.286Z,16.20
2023-05-14T19:03:10.641Z,16.20
2023-05-14T19:05:37.432Z,16.20
2023-05-14T19:08:04.187Z,16.20
2023-05-14T19:10:30.900Z,16.20
2023-05-14T19:12:57.728Z,16.10
2023-05-14T19:15:24.864Z,16.10
2023-05-14T19:17:52.204Z,16.00
2023-05-14T19:20:21.430Z,16.00
2023-05-14T19:22:48.138Z,16.00
2023-05-14T19:25:14.944Z,16.00
2023-05-14T19:27:41.618Z,16.00
2023-05-14T19:30:10.941Z,16.00
2023-05-14T19:32:38.086Z,16.00
2023-05-14T19:35:05.715Z,16.10
2023-05-14T19:37:32.424Z,16.00
2023-05-14T19:39:59.115Z,16.00
2023-05-14T19:42:25.903Z,15.90
2023-05-14T19:45:02.392Z,15.80
2023-05-14T19:47:29.151Z,15.80
2023-05-14T19:49:55.899Z,15.80
2023-05-14T19:52:24.829Z,15.90
2023-05-14T19:54:51.569Z,15.90
2023-05-14T19:57:18.265Z,15.90
2023-05-14T19:59:45.050Z,16.00
2023-05-14T20:02:18.182Z,16.00
2023-05-14T20:04:47.842Z,16.00
2023-05-14T20:07:15.746Z,16.00
2023-05-14T20:09:42.545Z,16.00
2023-05-14T20:12:12.952Z,16.00
2023-05-14T20:14:41.069Z,16.00
2023-05-14T20:17:07.876Z,15.90
2023-05-14T20:19:37.239Z,15.90
2023-05-14T20:22:04.035Z,15.90
2023-05-14T20:24:30.770Z,15.80
2023-05-14T20:26:59.860Z,15.80
2023-05-14T20:29:26.556Z,15.90
2023-05-14T20:31:53.249Z,15.90
2023-05-14T20:34:23.185Z,15.90
2023-05-14T20:36:50.114Z,15.90
2023-05-14T20:39:16.798Z,15.90
2023-05-14T20:41:45.531Z,16.00
2023-05-14T20:44:12.203Z,16.00
2023-05-14T20:46:38.920Z,16.00
2023-05-14T20:49:06.014Z,15.90
2023-05-14T20:51:32.755Z,15.90
2023-05-14T20:53:59.395Z,15.80
2023-05-14T20:56:26.503Z,15.80
2023-05-14T20:58:53.235Z,15.80
2023-05-14T21:01:19.985Z,15.80
2023-05-14T21:03:46.875Z,15.80
2023-05-14T21:06:13.773Z,15.90
2023-05-14T21:08:40.635Z,15.80
2023-05-14T21:11:07.754Z,15.90
2023-05-14T21:13:34.529Z,15.80
2023-05-14T21:16:01.351Z,15.90
2023-05-14T21:18:30.793Z,15.80
2023-05-14T21:20:57.547Z,15.70
2023-05-14T21:23:24.255Z,15.70
2023-05-14T21:25:51.118Z,15.70
2023-05-14T21:28:17.838Z,15.80
2023-05-14T21:30:44.532Z,15.70
2023-05-14T21:33:11.365Z,15.80
2023-05-14T21:35:38.117Z,15.80
2023-05-14T21:38:04.839Z,15.80
2023-05-14T21:40:31.546Z,15.70
2023-05-14T21:42:58.244Z,15.70
2023-05-14T21:45:25.160Z,15.70
2023-05-14T21:47:52.267Z,15.70
2023-05-14T21:50:19.040Z,15.70
2023-05-14T21:52:45.754Z,15.70
2023-05-14T21:55:12.547Z,15.70
2023-05-14T21:57:39.296Z,15.70
2023-05-14T22:00:11.065Z,15.70
2023-05-14T22:02:37.849Z,15.70
2023-05-14T22:05:05.251Z,15.70
2023-05-14T22:07:32.851Z,15.80
2023-05-14T22:09:59.817Z,15.80
2023-05-14T22:12:26.851Z,15.80
2023-05-14T22:14:53.567Z,15.70
2023-05-14T22:17:20.342Z,15.60
2023-05-14T22:19:47.083Z,15.60
2023-05-14T22:22:13.819Z,15.60
2023-05-14T22:24:40.662Z,15.70
2023-05-14T22:27:07.360Z,15.70
2023-05-14T22:29:35.253Z,15.70
2023-05-14T22:32:03.576Z,15.70
2023-05-14T22:34:30.400Z,15.70
2023-05-14T22:36:57.090Z,15.70
2023-05-14T22:39:23.832Z,15.70
2023-05-14T22:41:54.961Z,15.80
2023-05-14T22:44:24.743Z,15.70
2023-05-14T22:46:51.557Z,15.70
2023-05-14T22:49:18.325Z,15.70
2023-05-14T22:51:45.065Z,15.70
2023-05-14T22:54:11.852Z,15.70
2023-05-14T22:56:38.586Z,15.70
2023-05-14T22:59:05.515Z,15.70
2023-05-14T23:01:32.312Z,15.70
2023-05-14T23:03:59.185Z,15.70
2023-05-14T23:06:26.010Z,15.70
2023-05-14T23:08:52.815Z,15.70
2023-05-14T23:11:19.534Z,15.70
2023-05-14T23:13:46.231Z,15.70
2023-05-14T23:16:12.922Z,15.70
2023-05-14T23:18:39.803Z,15.70
2023-05-14T23:21:06.705Z,15.70
2023-05-14T23:23:33.385Z,15.70
2023-05-14T23:26:00.148Z,15.70
2023-05-14T23:28:26.864Z,15.70
2023-05-14T23:30:53.579Z,15.70
2023-05-14T23:33:20.265Z,15.70
2023-05-14T23:35:47.021Z,15.60
2023-05-14T23:38:13.767Z,15.60
2023-05-14T23:40:40.507Z,15.50
2023-05-14T23:43:07.233Z,15.50
2023-05-14T23:45:34.485Z,15.50
2023-05-14T23:48:01.452Z,15.40
2023-05-14T23:50:28.248Z,15.40
2023-05-14T23:52:55.195Z,15.40
2023-05-14T23:55:22.134Z,15.40
2023-05-14T23:57:49.074Z,15.40
